createdAt,value
2018-03-28T00:00:52.982Z,11.90
2018-03-28T00:03:21.300Z,11.20
2018-03-28T00:05:50.735Z,11.03
2018-03-28T00:08:19.758Z,11.30
2018-03-28T00:10:48.084Z,10.20
2018-03-28T00:13:16.470Z,10.87
2018-03-28T00:15:44.857Z,11.57
2018-03-28T00:18:13.122Z,11.57
2018-03-28T00:20:42.558Z,10.97
2018-03-28T00:23:11.972Z,11.40
2018-03-28T00:25:40.995Z,11.50
2018-03-28T00:28:10.446Z,10.97
2018-03-28T00:30:39.853Z,10.73
2018-03-28T00:33:08.189Z,11.40
2018-03-28T00:35:37.272Z,12.67
2018-03-28T00:38:05.667Z,12.83
2018-03-28T00:40:34.831Z,12.60
2018-03-28T00:43:04.044Z,11.57
2018-03-28T00:45:32.468Z,11.83
2018-03-28T00:48:01.529Z,12.83
2018-03-28T00:50:29.881Z,11.90
2018-03-28T00:52:58.298Z,12.13
2018-03-28T00:55:26.687Z,11.63
2018-03-28T00:57:54.959Z,11.63
2018-03-28T01:00:23.218Z,10.57
2018-03-28T01:02:52.443Z,11.27
2018-03-28T01:05:20.678Z,11.60
2018-03-28T01:07:49.765Z,11.60
2018-03-28T01:10:18.354Z,11.90
2018-03-28T01:12:47.422Z,10.80
2018-03-28T01:15:15.715Z,11.77
2018-03-28T01:17:44.007Z,11.47
2018-03-28T01:20:12.267Z,10.60
2018-03-28T01:22:40.531Z,10.77
2018-03-28T01:25:08.821Z,11.30
2018-03-28T01:27:37.109Z,10.40
2018-03-28T01:30:05.423Z,10.00
2018-03-28T01:32:33.698Z,11.70
2018-03-28T01:35:01.958Z,11.70
2018-03-28T01:37:30.243Z,11.88
2018-03-28T01:39:58.477Z,10.50
2018-03-28T01:42:27.658Z,11.03
2018-03-28T01:44:55.984Z,10.40
2018-03-28T01:47:24.443Z,10.37
2018-03-28T01:49:52.719Z,10.87
2018-03-28T01:52:22.311Z,11.13
2018-03-28T01:54:51.723Z,11.20
2018-03-28T01:57:20.059Z,11.23
2018-03-28T01:59:49.077Z,11.87
2018-03-28T02:02:17.443Z,10.60
2018-03-28T02:04:45.773Z,10.87
2018-03-28T02:07:14.052Z,11.27
2018-03-28T02:09:42.333Z,10.83
2018-03-28T02:12:12.952Z,11.10
2018-03-28T02:14:41.271Z,10.73
2018-03-28T02:17:10.334Z,11.13
2018-03-28T02:19:38.807Z,12.80
2018-03-28T02:22:10.922Z,10.93
2018-03-28T02:24:39.978Z,11.77
2018-03-28T02:27:09.001Z,10.88
2018-03-28T02:29:38.067Z,11.40
2018-03-28T02:32:07.120Z,12.47
2018-03-28T02:34:35.397Z,12.07
2018-03-28T02:37:03.654Z,12.00
2018-03-28T02:39:31.948Z,11.87
2018-03-28T02:42:00.251Z,11.90
2018-03-28T02:44:28.634Z,11.47
2018-03-28T02:46:57.770Z,12.00
2018-03-28T02:49:26.056Z,12.83
2018-03-28T02:51:55.524Z,12.27
2018-03-28T02:54:23.878Z,12.23
2018-03-28T02:56:52.154Z,12.63
2018-03-28T02:59:21.652Z,12.90
2018-03-28T03:01:50.742Z,13.18
2018-03-28T03:04:19.013Z,11.93
2018-03-28T03:06:47.286Z,11.87
2018-03-28T03:09:15.575Z,12.00
2018-03-28T03:11:43.964Z,12.43
2018-03-28T03:14:12.278Z,13.00
2018-03-28T03:16:41.359Z,13.50
2018-03-28T03:19:09.612Z,12.77
2018-03-28T03:21:37.957Z,12.05
2018-03-28T03:24:06.232Z,11.50
2018-03-28T03:26:34.486Z,12.63
2018-03-28T03:29:04.392Z,12.40
2018-03-28T03:31:32.700Z,12.80
2018-03-28T03:34:00.972Z,12.50
2018-03-28T03:36:29.277Z,12.67
2018-03-28T03:38:57.538Z,12.83
2018-03-28T03:41:27.008Z,13.87
2018-03-28T03:43:55.436Z,13.47
2018-03-28T03:46:23.712Z,13.30
2018-03-28T03:48:54.939Z,13.70
2018-03-28T03:51:23.233Z,13.83
2018-03-28T03:53:51.538Z,13.43
2018-03-28T03:56:19.886Z,13.32
2018-03-28T03:58:50.044Z,15.37
2018-03-28T04:01:19.498Z,14.73
2018-03-28T04:03:47.867Z,14.47
2018-03-28T04:06:16.130Z,14.87
2018-03-28T04:08:44.384Z,13.90
2018-03-28T04:11:13.440Z,14.23
2018-03-28T04:13:41.731Z,14.73
2018-03-28T04:16:10.092Z,14.43
2018-03-28T04:18:38.333Z,13.77
2018-03-28T04:21:06.666Z,15.27
2018-03-28T04:23:34.969Z,14.23
2018-03-28T04:26:03.248Z,15.40
2018-03-28T04:28:32.297Z,14.80
2018-03-28T04:31:00.610Z,15.03
2018-03-28T04:33:28.945Z,15.43
2018-03-28T04:35:58.997Z,15.17
2018-03-28T04:38:28.042Z,15.97
2018-03-28T04:40:56.377Z,15.80
2018-03-28T04:43:25.420Z,16.87
2018-03-28T04:45:53.674Z,16.60
2018-03-28T04:48:21.970Z,16.77
2018-03-28T04:50:50.267Z,17.63
2018-03-28T04:53:18.565Z,16.93
2018-03-28T04:55:47.614Z,17.63
2018-03-28T04:58:16.774Z,16.13
2018-03-28T05:00:45.926Z,17.47
2018-03-28T05:03:15.410Z,16.43
2018-03-28T05:05:45.227Z,18.30
2018-03-28T05:08:13.534Z,18.90
2018-03-28T05:10:41.809Z,19.40
2018-03-28T05:13:10.068Z,18.87
2018-03-28T05:15:38.375Z,19.03
2018-03-28T05:18:06.659Z,20.67
2018-03-28T05:20:35.702Z,19.90
2018-03-28T05:23:03.963Z,19.33
2018-03-28T05:25:32.230Z,21.10
2018-03-28T05:28:00.573Z,21.10
2018-03-28T05:30:29.681Z,20.80
2018-03-28T05:32:59.483Z,21.30
2018-03-28T05:35:28.631Z,19.20
2018-03-28T05:37:56.909Z,20.43
2018-03-28T05:40:25.172Z,19.27
2018-03-28T05:42:53.453Z,22.00
2018-03-28T05:45:22.504Z,20.07
2018-03-28T05:47:52.344Z,20.63
2018-03-28T05:50:20.650Z,21.63
2018-03-28T05:52:48.944Z,21.17
2018-03-28T05:55:17.335Z,18.48
2018-03-28T05:57:45.591Z,20.67
2018-03-28T06:00:13.830Z,21.67
2018-03-28T06:02:42.107Z,20.57
2018-03-28T06:05:10.380Z,19.60
2018-03-28T06:07:38.635Z,19.37
2018-03-28T06:10:07.708Z,19.48
2018-03-28T06:12:35.992Z,21.07
2018-03-28T06:15:05.437Z,19.47
2018-03-28T06:17:38.027Z,18.83
2018-03-28T06:20:06.295Z,18.77
2018-03-28T06:22:34.563Z,18.75
2018-03-28T06:25:02.815Z,19.20
2018-03-28T06:27:31.855Z,19.67
2018-03-28T06:30:00.997Z,18.23
2018-03-28T06:32:30.566Z,19.30
2018-03-28T06:34:59.757Z,18.33
2018-03-28T06:37:28.102Z,18.70
2018-03-28T06:39:56.448Z,19.73
2018-03-28T06:42:24.682Z,17.93
2018-03-28T06:44:53.511Z,18.13
2018-03-28T06:47:22.593Z,17.47
2018-03-28T06:49:50.813Z,18.30
2018-03-28T06:52:19.120Z,18.57
2018-03-28T06:54:48.199Z,19.23
2018-03-28T06:57:16.458Z,19.10
2018-03-28T06:59:44.750Z,17.80
2018-03-28T07:02:13.044Z,18.93
2018-03-28T07:04:42.175Z,18.53
2018-03-28T07:07:12.133Z,19.07
2018-03-28T07:09:40.373Z,18.37
2018-03-28T07:12:09.444Z,20.23
2018-03-28T07:14:37.769Z,19.00
2018-03-28T07:17:06.115Z,17.10
2018-03-28T07:19:34.379Z,19.23
2018-03-28T07:22:02.676Z,19.13
2018-03-28T07:24:31.679Z,19.20
2018-03-28T07:27:01.090Z,18.53
2018-03-28T07:29:30.086Z,18.77
2018-03-28T07:31:58.456Z,18.73
2018-03-28T07:34:26.701Z,19.23
2018-03-28T07:36:55.796Z,18.60
2018-03-28T07:39:24.094Z,18.10
2018-03-28T07:41:53.214Z,18.40
2018-03-28T07:44:21.443Z,18.87
2018-03-28T07:46:49.708Z,17.43
2018-03-28T07:49:18.035Z,17.20
2018-03-28T07:51:47.035Z,17.43
2018-03-28T07:54:15.381Z,18.73
2018-03-28T07:56:43.662Z,16.30
2018-03-28T07:59:11.961Z,17.43
2018-03-28T08:01:40.218Z,15.43
2018-03-28T08:04:09.262Z,18.53
2018-03-28T08:06:37.523Z,16.23
2018-03-28T08:09:05.835Z,15.70
2018-03-28T08:11:36.392Z,15.33
2018-03-28T08:14:04.647Z,15.90
2018-03-28T08:16:32.906Z,14.57
2018-03-28T08:19:01.181Z,16.37
2018-03-28T08:21:29.510Z,13.77
2018-03-28T08:23:57.831Z,14.90
2018-03-28T08:26:26.109Z,15.30
2018-03-28T08:28:54.381Z,14.60
2018-03-28T08:31:22.693Z,14.97
2018-03-28T08:33:51.706Z,14.43
2018-03-28T08:36:19.995Z,14.53
2018-03-28T08:38:48.344Z,15.45
2018-03-28T08:41:16.606Z,14.90
2018-03-28T08:43:46.695Z,16.03
2018-03-28T08:46:15.075Z,16.17
2018-03-28T08:48:43.387Z,16.33
2018-03-28T08:51:12.499Z,16.80
2018-03-28T08:53:41.610Z,16.43
2018-03-28T08:56:09.844Z,17.47
2018-03-28T08:58:38.136Z,15.47
2018-03-28T09:01:08.155Z,15.37
2018-03-28T09:03:37.211Z,16.40
2018-03-28T09:06:05.487Z,15.30
2018-03-28T09:08:33.803Z,15.10
2018-03-28T09:11:06.556Z,13.97
2018-03-28T09:13:34.802Z,14.77
2018-03-28T09:16:03.139Z,15.97
2018-03-28T09:18:32.248Z,15.50
2018-03-28T09:21:00.566Z,14.43
2018-03-28T09:23:28.861Z,15.00
2018-03-28T09:25:57.103Z,15.07
2018-03-28T09:28:26.493Z,14.37
2018-03-28T09:30:54.754Z,14.97
2018-03-28T09:33:23.028Z,14.17
2018-03-28T09:35:51.369Z,15.13
2018-03-28T09:38:19.640Z,15.43
2018-03-28T09:40:48.033Z,14.20
2018-03-28T09:43:16.339Z,14.67
2018-03-28T09:45:45.407Z,15.67
2018-03-28T09:48:15.253Z,14.67
2018-03-28T09:50:44.281Z,14.77
2018-03-28T09:53:12.546Z,14.07
2018-03-28T09:55:40.832Z,13.67
2018-03-28T09:58:10.304Z,14.40
2018-03-28T10:00:40.367Z,13.48
2018-03-28T10:03:12.510Z,13.27
2018-03-28T10:05:40.898Z,12.97
2018-03-28T10:08:09.204Z,13.10
2018-03-28T10:10:37.489Z,13.10
2018-03-28T10:13:06.523Z,13.40
2018-03-28T10:15:34.774Z,12.80
2018-03-28T10:18:03.072Z,12.00
2018-03-28T10:20:31.400Z,10.83
2018-03-28T10:22:59.675Z,11.27
2018-03-28T10:25:27.952Z,11.57
2018-03-28T10:27:56.999Z,10.47
2018-03-28T10:30:25.282Z,11.87
2018-03-28T10:32:53.619Z,11.43
2018-03-28T10:35:22.686Z,10.90
2018-03-28T10:37:50.985Z,11.03
2018-03-28T10:40:20.052Z,10.60
2018-03-28T10:42:48.389Z,11.37
2018-03-28T10:45:16.758Z,10.73
2018-03-28T10:47:45.856Z,10.93
2018-03-28T10:50:14.104Z,11.73
2018-03-28T10:52:43.134Z,10.90
2018-03-28T10:55:11.439Z,11.23
2018-03-28T10:57:39.679Z,11.40
2018-03-28T11:00:08.053Z,10.80
2018-03-28T11:02:37.572Z,10.93
2018-03-28T11:05:05.835Z,11.63
2018-03-28T11:07:34.121Z,11.30
2018-03-28T11:10:02.438Z,11.67
2018-03-28T11:12:30.715Z,11.43
2018-03-28T11:15:02.685Z,11.50
2018-03-28T11:17:30.961Z,11.37
2018-03-28T11:20:00.760Z,11.67
2018-03-28T11:22:29.804Z,11.77
2018-03-28T11:24:58.852Z,11.77
2018-03-28T11:27:27.182Z,12.03
2018-03-28T11:29:55.497Z,13.33
2018-03-28T11:32:23.773Z,13.10
2018-03-28T11:34:52.022Z,13.10
2018-03-28T11:37:20.320Z,14.77
2018-03-28T11:39:48.570Z,14.43
2018-03-28T11:42:17.637Z,13.30
2018-03-28T11:44:47.819Z,12.83
2018-03-28T11:47:16.091Z,13.87
2018-03-28T11:49:44.386Z,14.00
2018-03-28T11:52:13.409Z,15.37
2018-03-28T11:54:41.718Z,14.50
2018-03-28T11:57:10.032Z,13.47
2018-03-28T11:59:38.347Z,14.77
2018-03-28T12:02:07.477Z,14.70
2018-03-28T12:04:35.852Z,15.40
2018-03-28T12:07:05.699Z,15.37
2018-03-28T12:09:33.954Z,14.27
2018-03-28T12:12:02.258Z,16.40
2018-03-28T12:14:30.617Z,14.93
2018-03-28T12:16:58.937Z,15.23
2018-03-28T12:19:27.953Z,16.30
2018-03-28T12:21:56.195Z,15.00
2018-03-28T12:24:25.243Z,15.33
2018-03-28T12:26:53.671Z,15.63
2018-03-28T12:29:21.918Z,17.37
2018-03-28T12:31:50.227Z,17.10
2018-03-28T12:34:20.062Z,16.07
2018-03-28T12:36:48.321Z,16.53
2018-03-28T12:39:17.389Z,17.37
2018-03-28T12:41:45.662Z,17.13
2018-03-28T12:44:14.035Z,17.77
2018-03-28T12:46:43.146Z,17.00
2018-03-28T12:49:11.465Z,18.40
2018-03-28T12:51:41.355Z,16.98
2018-03-28T12:54:11.274Z,17.07
2018-03-28T12:56:40.871Z,16.27
2018-03-28T12:59:09.220Z,18.33
2018-03-28T13:01:38.243Z,17.23
2018-03-28T13:04:07.260Z,16.87
2018-03-28T13:06:35.519Z,16.08
2018-03-28T13:09:03.883Z,18.67
2018-03-28T13:11:32.970Z,17.40
2018-03-28T13:14:01.339Z,17.35
2018-03-28T13:16:29.719Z,18.20
2018-03-28T13:18:59.524Z,17.73
2018-03-28T13:21:27.803Z,18.70
2018-03-28T13:23:56.076Z,16.67
2018-03-28T13:26:24.358Z,18.85
2018-03-28T13:28:52.706Z,18.33
2018-03-28T13:31:21.024Z,20.87
2018-03-28T13:33:49.858Z,18.53
2018-03-28T13:36:18.114Z,19.50
2018-03-28T13:38:47.372Z,20.47
2018-03-28T13:41:15.606Z,19.12
2018-03-28T13:43:43.886Z,18.90
2018-03-28T13:46:12.262Z,20.50
2018-03-28T13:48:40.755Z,18.27
2018-03-28T13:51:08.999Z,21.10
2018-03-28T13:53:38.194Z,20.93
2018-03-28T13:56:09.324Z,21.30
2018-03-28T13:58:37.621Z,21.47
2018-03-28T14:01:05.974Z,21.70
2018-03-28T14:03:35.942Z,22.60
2018-03-28T14:06:04.313Z,21.97
2018-03-28T14:08:32.587Z,21.87
2018-03-28T14:11:00.890Z,22.57
2018-03-28T14:13:29.210Z,22.30
2018-03-28T14:15:58.248Z,21.13
2018-03-28T14:18:27.659Z,22.77
2018-03-28T14:20:57.382Z,21.80
2018-03-28T14:23:25.628Z,23.33
2018-03-28T14:25:53.932Z,21.40
2018-03-28T14:28:22.988Z,24.40
2018-03-28T14:30:51.315Z,22.37
2018-03-28T14:33:19.579Z,23.07
2018-03-28T14:35:47.898Z,21.40
2018-03-28T14:38:16.961Z,21.30
2018-03-28T14:40:45.440Z,20.83
2018-03-28T14:43:14.013Z,20.53
2018-03-28T14:45:42.300Z,18.47
2018-03-28T14:48:11.712Z,21.00
2018-03-28T14:50:40.011Z,21.67
2018-03-28T14:53:09.029Z,19.93
2018-03-28T14:55:37.297Z,20.47
2018-03-28T14:58:06.588Z,21.27
2018-03-28T15:00:34.884Z,19.47
2018-03-28T15:03:03.127Z,19.63
2018-03-28T15:05:31.421Z,19.67
2018-03-28T15:07:59.702Z,20.30
2018-03-28T15:10:27.989Z,22.00
2018-03-28T15:12:57.062Z,19.10
2018-03-28T15:15:26.091Z,19.17
2018-03-28T15:17:54.355Z,20.30
2018-03-28T15:20:22.674Z,18.97
2018-03-28T15:22:52.088Z,21.90
2018-03-28T15:25:20.342Z,21.10
2018-03-28T15:27:49.866Z,22.20
2018-03-28T15:30:18.131Z,23.00
2018-03-28T15:32:46.396Z,23.23
2018-03-28T15:35:15.901Z,23.33
2018-03-28T15:37:44.182Z,22.37
2018-03-28T15:40:14.054Z,23.10
2018-03-28T15:42:42.505Z,21.47
2018-03-28T15:45:11.596Z,21.27
2018-03-28T15:47:40.676Z,20.80
2018-03-28T15:50:09.764Z,23.17
2018-03-28T15:52:38.114Z,21.73
2018-03-28T15:55:06.369Z,23.57
2018-03-28T15:57:34.697Z,24.17
2018-03-28T16:00:03.022Z,21.97
2018-03-28T16:02:31.308Z,23.47
2018-03-28T16:04:59.585Z,23.97
2018-03-28T16:07:27.861Z,23.73
2018-03-28T16:09:56.949Z,24.40
2018-03-28T16:12:25.235Z,24.83
2018-03-28T16:14:53.545Z,24.53
2018-03-28T16:17:21.832Z,25.43
2018-03-28T16:19:51.635Z,28.03
2018-03-28T16:22:20.122Z,24.63
2018-03-28T16:24:48.395Z,27.00
2018-03-28T16:27:16.665Z,27.13
2018-03-28T16:29:45.024Z,26.50
2018-03-28T16:32:13.418Z,27.27
2018-03-28T16:34:41.685Z,28.60
2018-03-28T16:37:09.974Z,27.27
2018-03-28T16:39:38.370Z,28.73
2018-03-28T16:42:07.447Z,28.90
2018-03-28T16:44:35.871Z,29.60
2018-03-28T16:47:04.944Z,27.97
2018-03-28T16:49:33.990Z,27.17
2018-03-28T16:52:03.907Z,28.85
2018-03-28T16:54:32.214Z,31.73
2018-03-28T16:57:00.487Z,29.40
2018-03-28T16:59:28.786Z,30.40
2018-03-28T17:01:57.812Z,30.93
2018-03-28T17:04:26.270Z,31.37
2018-03-28T17:06:55.629Z,30.77
2018-03-28T17:09:23.921Z,32.47
2018-03-28T17:11:53.419Z,32.17
2018-03-28T17:14:22.458Z,31.30
2018-03-28T17:16:50.725Z,32.37
2018-03-28T17:19:19.039Z,32.57
2018-03-28T17:21:47.363Z,34.83
2018-03-28T17:24:16.549Z,33.30
2018-03-28T17:26:44.864Z,33.17
2018-03-28T17:29:13.179Z,33.73
2018-03-28T17:31:42.224Z,32.40
2018-03-28T17:34:11.220Z,34.10
2018-03-28T17:36:39.543Z,31.80
2018-03-28T17:39:07.818Z,34.73
2018-03-28T17:41:36.160Z,31.80
2018-03-28T17:44:05.195Z,34.37
2018-03-28T17:46:33.453Z,31.30
2018-03-28T17:49:01.747Z,35.40
2018-03-28T17:51:30.966Z,32.97
2018-03-28T17:54:02.044Z,32.53
2018-03-28T17:56:31.110Z,31.93
2018-03-28T17:59:00.202Z,34.00
2018-03-28T18:01:28.496Z,33.90
2018-03-28T18:03:56.854Z,33.27
2018-03-28T18:06:25.115Z,30.35
2018-03-28T18:08:54.961Z,32.00
2018-03-28T18:11:24.048Z,32.63
2018-03-28T18:13:53.854Z,31.73
2018-03-28T18:16:23.031Z,32.67
2018-03-28T18:18:51.308Z,32.63
2018-03-28T18:21:19.602Z,30.57
2018-03-28T18:23:47.892Z,31.50
2018-03-28T18:26:20.035Z,31.43
2018-03-28T18:28:49.131Z,32.93
2018-03-28T18:31:17.523Z,31.43
2018-03-28T18:33:45.877Z,31.30
2018-03-28T18:36:14.140Z,28.17
2018-03-28T18:38:43.160Z,29.47
2018-03-28T18:41:11.479Z,30.00
2018-03-28T18:43:39.767Z,30.97
2018-03-28T18:46:08.157Z,29.43
2018-03-28T18:48:36.463Z,31.60
2018-03-28T18:51:04.744Z,31.03
2018-03-28T18:53:33.885Z,29.73
2018-03-28T18:56:02.453Z,30.62
2018-03-28T18:58:30.811Z,31.53
2018-03-28T19:00:59.865Z,32.67
2018-03-28T19:03:30.031Z,32.60
2018-03-28T19:05:59.102Z,30.37
2018-03-28T19:08:27.653Z,30.40
2018-03-28T19:10:55.952Z,29.37
2018-03-28T19:13:24.442Z,30.70
2018-03-28T19:15:52.765Z,29.87
2018-03-28T19:18:21.099Z,29.43
2018-03-28T19:20:49.397Z,26.40
2018-03-28T19:23:18.484Z,26.75
2018-03-28T19:25:47.510Z,27.67
2018-03-28T19:28:16.384Z,26.03
2018-03-28T19:30:46.381Z,26.43
2018-03-28T19:33:15.528Z,27.43
2018-03-28T19:35:43.804Z,26.17
2018-03-28T19:38:12.107Z,26.67
2018-03-28T19:40:40.427Z,26.40
2018-03-28T19:43:09.502Z,27.33
2018-03-28T19:45:37.768Z,27.20
2018-03-28T19:48:06.086Z,26.50
2018-03-28T19:50:34.367Z,26.83
2018-03-28T19:53:02.750Z,27.57
2018-03-28T19:55:31.759Z,25.67
2018-03-28T19:58:00.125Z,28.07
2018-03-28T20:00:28.453Z,27.63
2018-03-28T20:02:58.578Z,27.23
2018-03-28T20:05:27.404Z,27.77
2018-03-28T20:07:55.702Z,29.43
2018-03-28T20:10:23.995Z,28.93
2018-03-28T20:12:52.344Z,28.33
2018-03-28T20:15:22.060Z,28.73
2018-03-28T20:17:50.572Z,28.43
2018-03-28T20:20:20.583Z,28.23
2018-03-28T20:22:49.722Z,29.73
2018-03-28T20:25:18.771Z,26.07
2018-03-28T20:27:47.065Z,29.93
2018-03-28T20:30:15.340Z,29.43
2018-03-28T20:32:46.281Z,28.93
2018-03-28T20:35:14.551Z,30.00
2018-03-28T20:37:42.863Z,30.00
2018-03-28T20:40:11.180Z,29.33
2018-03-28T20:42:39.468Z,29.67
2018-03-28T20:45:07.749Z,29.42
2018-03-28T20:47:36.027Z,28.60
2018-03-28T20:50:05.211Z,29.60
2018-03-28T20:52:33.530Z,28.73
2018-03-28T20:55:02.583Z,28.07
2018-03-28T20:57:30.873Z,27.40
2018-03-28T20:59:59.132Z,27.90
2018-03-28T21:02:27.421Z,27.83
2018-03-28T21:04:56.244Z,28.30
2018-03-28T21:07:25.310Z,28.67
2018-03-28T21:09:53.629Z,27.20
2018-03-28T21:12:21.923Z,28.43
2018-03-28T21:14:50.209Z,27.33
2018-03-28T21:17:18.504Z,27.73
2018-03-28T21:19:46.796Z,27.15
2018-03-28T21:22:15.078Z,28.37
2018-03-28T21:24:43.367Z,27.63
2018-03-28T21:27:12.409Z,28.03
2018-03-28T21:29:40.677Z,28.53
2018-03-28T21:32:08.970Z,26.70
2018-03-28T21:34:37.261Z,27.93
2018-03-28T21:37:05.531Z,26.50
2018-03-28T21:39:33.817Z,26.97
2018-03-28T21:42:02.093Z,25.57
2018-03-28T21:44:31.135Z,27.60
2018-03-28T21:46:59.437Z,25.87
2018-03-28T21:49:27.841Z,27.33
2018-03-28T21:51:56.123Z,26.60
2018-03-28T21:54:24.369Z,25.93
2018-03-28T21:56:52.605Z,28.27
2018-03-28T21:59:20.954Z,28.47
2018-03-28T22:01:49.197Z,27.25
2018-03-28T22:04:18.132Z,29.20
2018-03-28T22:06:46.387Z,26.53
2018-03-28T22:09:14.616Z,29.37
2018-03-28T22:11:42.873Z,25.90
2018-03-28T22:14:11.268Z,27.23
2018-03-28T22:16:39.536Z,26.47
2018-03-28T22:19:07.859Z,28.13
2018-03-28T22:21:38.174Z,27.10
2018-03-28T22:24:06.430Z,27.73
2018-03-28T22:26:34.695Z,27.43
2018-03-28T22:29:04.160Z,26.92
2018-03-28T22:31:32.531Z,29.67
2018-03-28T22:34:00.828Z,28.20
2018-03-28T22:36:29.930Z,27.13
2018-03-28T22:38:59.199Z,28.20
2018-03-28T22:41:27.499Z,28.53
2018-03-28T22:43:56.546Z,29.63
2018-03-28T22:46:24.826Z,29.73
2018-03-28T22:48:53.092Z,27.63
2018-03-28T22:51:21.334Z,28.57
2018-03-28T22:53:49.619Z,26.37
2018-03-28T22:56:17.950Z,27.37
2018-03-28T22:58:46.354Z,27.47
2018-03-28T23:01:15.428Z,29.40
2018-03-28T23:03:43.757Z,29.60
2018-03-28T23:06:12.001Z,28.03
2018-03-28T23:08:40.322Z,28.53
2018-03-28T23:11:09.517Z,28.10
2018-03-28T23:13:37.760Z,27.30
2018-03-28T23:16:06.085Z,28.63
2018-03-28T23:18:34.353Z,28.00
2018-03-28T23:21:03.440Z,25.87
2018-03-28T23:23:31.649Z,27.83
2018-03-28T23:25:59.965Z,27.17
2018-03-28T23:28:28.229Z,26.53
2018-03-28T23:30:57.266Z,25.90
2018-03-28T23:33:25.539Z,26.60
2018-03-28T23:35:53.809Z,26.63
2018-03-28T23:38:23.212Z,26.27
2018-03-28T23:40:51.489Z,26.77
2018-03-28T23:43:19.728Z,25.53
2018-03-28T23:45:48.055Z,27.10
2018-03-28T23:48:17.243Z,24.67
2018-03-28T23:50:45.533Z,26.13
2018-03-28T23:53:13.902Z,25.80
2018-03-28T23:55:42.191Z,24.47
2018-03-28T23:58:10.563Z,26.07
